createdAt,value
2023-01-08T00:01:46.634Z,7.36
2023-01-08T00:04:18.394Z,7.36
2023-01-08T00:06:48.571Z,7.38
2023-01-08T00:09:17.416Z,7.40
2023-01-08T00:11:46.150Z,7.43
2023-01-08T00:14:14.883Z,7.43
2023-01-08T00:16:43.571Z,7.46
2023-01-08T00:19:13.309Z,7.46
2023-01-08T00:21:42.064Z,7.47
2023-01-08T00:24:12.229Z,7.46
2023-01-08T00:26:41.246Z,7.43
2023-01-08T00:29:10.155Z,7.45
2023-01-08T00:31:39.031Z,7.46
2023-01-08T00:34:07.733Z,7.47
2023-01-08T00:36:36.521Z,7.41
2023-01-08T00:39:05.439Z,7.39
2023-01-08T00:41:35.563Z,7.36
2023-01-08T00:44:04.392Z,7.34
2023-01-08T00:46:33.264Z,7.31
2023-01-08T00:49:02.532Z,7.30
2023-01-08T00:51:31.295Z,7.32
2023-01-08T00:54:00.076Z,7.31
2023-01-08T00:56:28.846Z,7.30
2023-01-08T00:58:59.053Z,7.33
2023-01-08T01:01:27.947Z,7.31
2023-01-08T01:03:56.974Z,7.31
2023-01-08T01:06:25.780Z,7.35
2023-01-08T01:08:54.522Z,7.39
2023-01-08T01:11:26.730Z,7.39
2023-01-08T01:13:57.033Z,7.37
2023-01-08T01:16:27.417Z,7.38
2023-01-08T01:18:57.800Z,7.38
2023-01-08T01:21:28.436Z,7.37
2023-01-08T01:23:59.069Z,7.37
2023-01-08T01:26:29.058Z,7.34
2023-01-08T01:28:59.429Z,7.35
2023-01-08T01:31:32.155Z,7.33
2023-01-08T01:34:01.132Z,7.33
2023-01-08T01:36:29.843Z,7.35
2023-01-08T01:38:59.784Z,7.33
2023-01-08T01:41:31.441Z,7.34
2023-01-08T01:44:01.922Z,7.35
2023-01-08T01:46:39.356Z,7.34
2023-01-08T01:49:13.502Z,7.33
2023-01-08T01:51:49.043Z,7.32
2023-01-08T01:54:19.810Z,7.31
2023-01-08T01:56:48.935Z,7.29
2023-01-08T01:59:17.981Z,7.27
2023-01-08T02:01:49.825Z,7.23
2023-01-08T02:04:18.922Z,7.22
2023-01-08T02:06:56.794Z,7.19
2023-01-08T02:09:37.645Z,7.18
2023-01-08T02:12:18.193Z,7.16
2023-01-08T02:15:01.258Z,7.12
2023-01-08T02:17:37.890Z,7.11
2023-01-08T02:20:13.199Z,7.10
2023-01-08T02:22:54.226Z,7.10
2023-01-08T02:25:38.721Z,7.12
2023-01-08T02:28:13.024Z,7.13
2023-01-08T02:30:42.847Z,7.12
2023-01-08T02:33:11.221Z,7.14
2023-01-08T02:35:43.800Z,7.17
2023-01-08T02:38:16.452Z,7.22
2023-01-08T02:40:55.857Z,7.23
2023-01-08T02:43:31.319Z,7.24
2023-01-08T02:46:03.125Z,7.24
2023-01-08T02:48:41.500Z,7.24
2023-01-08T02:51:15.303Z,7.24
2023-01-08T02:53:47.103Z,7.24
2023-01-08T02:56:21.621Z,7.25
2023-01-08T02:58:54.379Z,7.25
2023-01-08T03:01:25.696Z,7.25
2023-01-08T03:03:57.509Z,7.25
2023-01-08T03:06:29.206Z,7.22
2023-01-08T03:08:59.713Z,7.19
2023-01-08T03:11:34.411Z,7.14
2023-01-08T03:14:10.684Z,7.12
2023-01-08T03:16:48.528Z,7.09
2023-01-08T03:19:21.471Z,7.08
2023-01-08T03:21:52.064Z,7.06
2023-01-08T03:24:24.224Z,7.03
2023-01-08T03:26:58.374Z,7.01
2023-01-08T03:29:29.571Z,6.99
2023-01-08T03:32:02.922Z,6.99
2023-01-08T03:34:37.284Z,6.99
2023-01-08T03:37:09.888Z,6.99
2023-01-08T03:39:43.913Z,6.98
2023-01-08T03:42:16.622Z,6.97
2023-01-08T03:44:46.922Z,6.98
2023-01-08T03:47:17.342Z,6.96
2023-01-08T03:49:47.526Z,6.96
2023-01-08T03:52:23.953Z,6.97
2023-01-08T03:54:53.915Z,6.96
2023-01-08T03:57:22.606Z,6.98
2023-01-08T03:59:53.601Z,7.02
2023-01-08T04:02:22.588Z,7.01
2023-01-08T04:04:51.462Z,6.99
2023-01-08T04:07:20.223Z,7.00
2023-01-08T04:09:49.001Z,7.00
2023-01-08T04:12:17.765Z,6.99
2023-01-08T04:14:46.518Z,6.97
2023-01-08T04:17:16.761Z,6.94
2023-01-08T04:19:46.254Z,6.94
2023-01-08T04:22:14.986Z,6.93
2023-01-08T04:24:44.455Z,6.93
2023-01-08T04:27:13.194Z,6.92
2023-01-08T04:29:41.973Z,6.96
2023-01-08T04:32:10.797Z,6.94
2023-01-08T04:34:41.015Z,6.93
2023-01-08T04:37:09.847Z,6.92
2023-01-08T04:39:38.564Z,6.91
2023-01-08T04:42:07.771Z,6.94
2023-01-08T04:44:36.493Z,6.96
2023-01-08T04:47:05.218Z,6.95
2023-01-08T04:49:33.914Z,6.95
2023-01-08T04:52:04.022Z,6.95
2023-01-08T04:54:33.387Z,6.91
2023-01-08T04:57:02.101Z,6.90
2023-01-08T04:59:30.865Z,6.88
2023-01-08T05:01:59.700Z,6.85
2023-01-08T05:04:28.543Z,6.85
2023-01-08T05:06:57.272Z,6.85
2023-01-08T05:09:27.460Z,6.86
2023-01-08T05:11:56.215Z,6.83
2023-01-08T05:14:25.051Z,6.81
2023-01-08T05:16:53.761Z,6.81
2023-01-08T05:19:22.462Z,6.82
2023-01-08T05:21:51.194Z,6.81
2023-01-08T05:24:20.086Z,6.81
2023-01-08T05:26:50.213Z,6.77
2023-01-08T05:29:19.019Z,6.79
2023-01-08T05:31:47.985Z,6.74
2023-01-08T05:34:16.829Z,6.73
2023-01-08T05:36:45.608Z,6.72
2023-01-08T05:39:14.510Z,6.68
2023-01-08T05:41:43.231Z,6.66
2023-01-08T05:44:13.725Z,6.63
2023-01-08T05:46:42.568Z,6.63
2023-01-08T05:49:11.481Z,6.60
2023-01-08T05:51:40.233Z,6.55
2023-01-08T05:54:09.049Z,6.49
2023-01-08T05:56:37.863Z,6.45
2023-01-08T05:59:06.673Z,6.40
2023-01-08T06:01:36.985Z,6.37
2023-01-08T06:04:06.033Z,6.33
2023-01-08T06:06:34.754Z,6.32
2023-01-08T06:09:03.506Z,6.30
2023-01-08T06:11:32.170Z,6.28
2023-01-08T06:14:00.954Z,6.31
2023-01-08T06:16:29.605Z,6.31
2023-01-08T06:18:59.805Z,6.31
2023-01-08T06:21:28.907Z,6.30
2023-01-08T06:23:57.612Z,6.33
2023-01-08T06:26:26.447Z,6.37
2023-01-08T06:28:55.180Z,6.39
2023-01-08T06:31:24.014Z,6.41
2023-01-08T06:33:52.746Z,6.41
2023-01-08T06:36:23.066Z,6.42
2023-01-08T06:38:51.754Z,6.43
2023-01-08T06:41:20.569Z,6.39
2023-01-08T06:43:49.279Z,6.33
2023-01-08T06:46:17.976Z,6.30
2023-01-08T06:48:47.055Z,6.24
2023-01-08T06:51:15.810Z,6.22
2023-01-08T06:53:45.949Z,6.22
2023-01-08T06:56:14.709Z,6.21
2023-01-08T06:58:43.645Z,6.19
2023-01-08T07:01:16.559Z,6.19
2023-01-08T07:03:45.946Z,6.22
2023-01-08T07:06:17.102Z,6.22
2023-01-08T07:08:47.974Z,6.24
2023-01-08T07:11:18.617Z,6.29
2023-01-08T07:13:47.386Z,6.31
2023-01-08T07:16:16.949Z,6.35
2023-01-08T07:18:45.438Z,6.39
2023-01-08T07:21:14.103Z,6.40
2023-01-08T07:23:43.348Z,6.44
2023-01-08T07:26:13.473Z,6.48
2023-01-08T07:28:43.926Z,6.51
2023-01-08T07:31:12.814Z,6.57
2023-01-08T07:33:41.557Z,6.59
2023-01-08T07:36:11.088Z,6.62
2023-01-08T07:38:39.833Z,6.65
2023-01-08T07:41:14.336Z,6.69
2023-01-08T07:43:43.187Z,6.80
2023-01-08T07:46:11.940Z,6.84
2023-01-08T07:48:40.967Z,6.90
2023-01-08T07:51:10.893Z,6.97
2023-01-08T07:53:39.845Z,7.04
2023-01-08T07:56:11.425Z,7.07
2023-01-08T07:58:41.607Z,7.14
2023-01-08T08:01:12.877Z,7.21
2023-01-08T08:03:42.181Z,7.24
2023-01-08T08:06:11.278Z,7.28
2023-01-08T08:08:42.095Z,7.32
2023-01-08T08:11:11.549Z,7.36
2023-01-08T08:13:45.088Z,7.44
2023-01-08T08:16:14.260Z,7.56
2023-01-08T08:18:43.009Z,7.66
2023-01-08T08:21:12.073Z,7.76
2023-01-08T08:23:40.640Z,7.85
2023-01-08T08:26:09.374Z,7.93
2023-01-08T08:28:38.100Z,8.00
2023-01-08T08:31:08.470Z,8.06
2023-01-08T08:33:37.362Z,8.06
2023-01-08T08:36:06.528Z,8.10
2023-01-08T08:38:35.686Z,8.16
2023-01-08T08:41:04.373Z,8.26
2023-01-08T08:43:33.422Z,8.29
2023-01-08T08:46:02.087Z,8.25
2023-01-08T08:48:32.245Z,8.24
2023-01-08T08:51:01.029Z,8.24
2023-01-08T08:53:29.835Z,8.26
2023-01-08T08:55:59.917Z,8.26
2023-01-08T08:58:28.688Z,8.28
2023-01-08T09:01:02.564Z,8.27
2023-01-08T09:03:32.929Z,8.31
2023-01-08T09:06:01.912Z,8.34
2023-01-08T09:08:30.725Z,8.38
2023-01-08T09:10:59.493Z,8.38
2023-01-08T09:13:28.235Z,8.40
2023-01-08T09:16:00.135Z,8.44
2023-01-08T09:18:28.934Z,8.44
2023-01-08T09:20:59.014Z,8.44
2023-01-08T09:23:28.056Z,8.44
2023-01-08T09:26:01.137Z,8.45
2023-01-08T09:28:29.875Z,8.48
2023-01-08T09:31:02.180Z,8.48
2023-01-08T09:33:31.555Z,8.45
2023-01-08T09:36:01.679Z,8.48
2023-01-08T09:38:30.394Z,8.51
2023-01-08T09:41:03.859Z,8.58
2023-01-08T09:43:36.779Z,8.61
2023-01-08T09:46:08.439Z,8.63
2023-01-08T09:48:39.489Z,8.63
2023-01-08T09:51:13.000Z,8.64
2023-01-08T09:53:42.838Z,8.69
2023-01-08T09:56:16.340Z,8.72
2023-01-08T09:58:49.246Z,8.73
2023-01-08T10:01:21.892Z,8.73
2023-01-08T10:03:55.263Z,8.72
2023-01-08T10:06:25.999Z,8.69
2023-01-08T10:08:54.876Z,8.72
2023-01-08T10:11:25.577Z,8.74
2023-01-08T10:13:56.733Z,8.72
2023-01-08T10:16:31.915Z,8.67
2023-01-08T10:19:01.986Z,8.62
2023-01-08T10:21:33.824Z,8.58
2023-01-08T10:24:02.730Z,8.60
2023-01-08T10:26:33.208Z,8.64
2023-01-08T10:29:10.518Z,8.67
2023-01-08T10:31:48.765Z,8.68
2023-01-08T10:34:29.410Z,8.65
2023-01-08T10:36:59.888Z,8.65
2023-01-08T10:39:31.257Z,8.64
2023-01-08T10:42:06.865Z,8.66
2023-01-08T10:44:36.076Z,8.63
2023-01-08T10:47:07.049Z,8.60
2023-01-08T10:49:42.212Z,8.63
2023-01-08T10:52:26.906Z,8.61
2023-01-08T10:54:56.195Z,8.65
2023-01-08T10:57:28.054Z,8.66
2023-01-08T10:59:57.916Z,8.65
2023-01-08T11:02:36.507Z,8.67
2023-01-08T11:05:11.643Z,8.64
2023-01-08T11:07:42.306Z,8.67
2023-01-08T11:10:24.430Z,8.68
2023-01-08T11:12:57.797Z,8.70
2023-01-08T11:15:33.581Z,8.72
2023-01-08T11:18:21.980Z,8.71
2023-01-08T11:20:52.124Z,8.69
2023-01-08T11:23:25.796Z,8.67
2023-01-08T11:26:03.151Z,8.68
2023-01-08T11:28:43.384Z,8.65
2023-01-08T11:31:18.222Z,8.65
2023-01-08T11:33:51.587Z,8.61
2023-01-08T11:36:27.831Z,8.62
2023-01-08T11:38:58.129Z,8.61
2023-01-08T11:41:40.912Z,8.58
2023-01-08T11:44:26.797Z,8.65
2023-01-08T11:47:08.937Z,8.66
2023-01-08T11:49:59.678Z,8.69
2023-01-08T11:52:44.672Z,8.71
2023-01-08T11:55:25.953Z,8.70
2023-01-08T11:58:08.150Z,8.70
2023-01-08T12:00:51.742Z,8.71
2023-01-08T12:03:32.989Z,8.74
2023-01-08T12:06:24.253Z,8.75
2023-01-08T12:09:05.806Z,8.77
2023-01-08T12:11:43.432Z,8.79
2023-01-08T12:14:30.495Z,8.76
2023-01-08T12:17:14.072Z,8.74
2023-01-08T12:19:59.966Z,8.73
2023-01-08T12:22:40.624Z,8.67
2023-01-08T12:25:27.106Z,8.66
2023-01-08T12:28:11.340Z,8.69
2023-01-08T12:30:56.938Z,8.69
2023-01-08T12:33:36.603Z,8.71
2023-01-08T12:36:10.881Z,8.69
2023-01-08T12:38:44.872Z,8.66
2023-01-08T12:41:15.873Z,8.59
2023-01-08T12:43:55.454Z,8.54
2023-01-08T12:46:26.133Z,8.50
2023-01-08T12:48:57.813Z,8.49
2023-01-08T12:51:34.660Z,8.50
2023-01-08T12:54:18.160Z,8.48
2023-01-08T12:56:56.969Z,8.45
2023-01-08T12:59:38.630Z,8.41
2023-01-08T13:02:20.509Z,8.38
2023-01-08T13:04:50.041Z,8.33
2023-01-08T13:07:24.840Z,8.29
2023-01-08T13:09:57.783Z,8.29
2023-01-08T13:12:35.931Z,8.28
2023-01-08T13:15:08.333Z,8.28
2023-01-08T13:17:39.624Z,8.29
2023-01-08T13:20:10.280Z,8.26
2023-01-08T13:22:39.559Z,8.25
2023-01-08T13:25:23.354Z,8.27
2023-01-08T13:27:52.085Z,8.27
2023-01-08T13:30:38.652Z,8.25
2023-01-08T13:33:28.299Z,8.26
2023-01-08T13:36:07.424Z,8.25
2023-01-08T13:38:36.233Z,8.23
2023-01-08T13:41:05.091Z,8.22
2023-01-08T13:43:40.419Z,8.24
2023-01-08T13:46:17.731Z,8.25
2023-01-08T13:48:52.338Z,8.24
2023-01-08T13:51:48.185Z,8.24
2023-01-08T13:54:26.744Z,8.25
2023-01-08T13:57:04.581Z,8.27
2023-01-08T13:59:40.725Z,8.27
2023-01-08T14:02:27.066Z,8.26
2023-01-08T14:04:56.497Z,8.29
2023-01-08T14:07:25.448Z,8.32
2023-01-08T14:09:54.761Z,8.32
2023-01-08T14:12:25.940Z,8.34
2023-01-08T14:14:59.009Z,8.32
2023-01-08T14:17:32.724Z,8.34
2023-01-08T14:20:01.579Z,8.35
2023-01-08T14:22:35.085Z,8.35
2023-01-08T14:25:06.459Z,8.34
2023-01-08T14:27:36.492Z,8.34
2023-01-08T14:30:18.884Z,8.34
2023-01-08T14:32:49.017Z,8.34
2023-01-08T14:35:20.580Z,8.27
2023-01-08T14:37:49.430Z,8.31
2023-01-08T14:40:29.179Z,8.33
2023-01-08T14:42:59.599Z,8.34
2023-01-08T14:45:31.968Z,8.36
2023-01-08T14:48:12.719Z,8.37
2023-01-08T14:50:44.161Z,8.37
2023-01-08T14:53:24.235Z,8.36
2023-01-08T14:55:54.748Z,8.37
2023-01-08T14:58:26.996Z,8.39
2023-01-08T15:00:58.858Z,8.40
2023-01-08T15:03:35.859Z,8.42
2023-01-08T15:06:05.470Z,8.43
2023-01-08T15:08:37.644Z,8.44
2023-01-08T15:11:11.905Z,8.47
2023-01-08T15:13:40.745Z,8.47
2023-01-08T15:16:12.565Z,8.50
2023-01-08T15:18:48.313Z,8.52
2023-01-08T15:21:21.495Z,8.45
2023-01-08T15:23:54.571Z,8.51
2023-01-08T15:26:24.764Z,8.52
2023-01-08T15:28:56.364Z,8.54
2023-01-08T15:31:30.204Z,8.56
2023-01-08T15:34:01.636Z,8.59
2023-01-08T15:36:30.405Z,8.60
2023-01-08T15:38:59.141Z,8.59
2023-01-08T15:41:45.503Z,8.63
2023-01-08T15:44:14.359Z,8.68
2023-01-08T15:46:43.109Z,8.70
2023-01-08T15:49:13.424Z,8.72
2023-01-08T15:51:47.756Z,8.74
2023-01-08T15:54:17.169Z,8.76
2023-01-08T15:56:46.146Z,8.77
2023-01-08T15:59:14.921Z,8.78
2023-01-08T16:01:43.974Z,8.80
2023-01-08T16:04:14.216Z,8.80
2023-01-08T16:06:43.055Z,8.81
2023-01-08T16:09:11.917Z,8.83
2023-01-08T16:11:40.736Z,8.84
2023-01-08T16:14:09.495Z,8.85
2023-01-08T16:16:38.562Z,8.85
2023-01-08T16:19:07.322Z,8.84
2023-01-08T16:21:37.581Z,8.81
2023-01-08T16:24:07.963Z,8.81
2023-01-08T16:26:36.720Z,8.78
2023-01-08T16:29:05.594Z,8.75
2023-01-08T16:31:35.845Z,8.73
2023-01-08T16:34:06.177Z,8.69
2023-01-08T16:36:36.455Z,8.64
2023-01-08T16:39:05.446Z,8.59
2023-01-08T16:41:34.347Z,8.58
2023-01-08T16:44:03.319Z,8.60
2023-01-08T16:46:32.039Z,8.60
2023-01-08T16:49:01.358Z,8.61
2023-01-08T16:51:30.009Z,8.61
2023-01-08T16:54:00.265Z,8.58
2023-01-08T16:56:29.065Z,8.61
2023-01-08T16:58:57.790Z,8.60
2023-01-08T17:01:27.412Z,8.58
2023-01-08T17:03:57.377Z,8.60
2023-01-08T17:06:27.375Z,8.59
2023-01-08T17:08:56.267Z,8.68
2023-01-08T17:11:26.985Z,8.73
2023-01-08T17:13:55.829Z,8.77
2023-01-08T17:16:24.500Z,8.78
2023-01-08T17:18:53.790Z,8.76
2023-01-08T17:21:22.451Z,8.77
2023-01-08T17:23:51.256Z,8.76
2023-01-08T17:26:19.958Z,8.76
2023-01-08T17:28:50.203Z,8.77
2023-01-08T17:31:20.716Z,8.79
2023-01-08T17:33:51.439Z,8.80
2023-01-08T17:36:22.091Z,8.84
2023-01-08T17:38:51.383Z,8.87
2023-01-08T17:41:30.641Z,8.87
2023-01-08T17:44:01.258Z,8.89
2023-01-08T17:46:30.307Z,8.95
2023-01-08T17:48:59.128Z,8.99
2023-01-08T17:51:27.967Z,9.01
2023-01-08T17:53:58.347Z,8.97
2023-01-08T17:56:27.170Z,9.01
2023-01-08T17:58:55.952Z,8.97
2023-01-08T18:01:26.293Z,8.97
2023-01-08T18:03:55.369Z,8.90
2023-01-08T18:06:24.115Z,8.85
2023-01-08T18:08:52.936Z,8.84
2023-01-08T18:11:21.680Z,8.83
2023-01-08T18:13:50.629Z,8.84
2023-01-08T18:16:19.358Z,8.84
2023-01-08T18:18:49.569Z,8.83
2023-01-08T18:21:18.621Z,8.81
2023-01-08T18:23:48.821Z,8.78
2023-01-08T18:26:20.809Z,8.73
2023-01-08T18:28:50.165Z,8.68
2023-01-08T18:31:18.731Z,8.65
2023-01-08T18:33:51.459Z,8.62
2023-01-08T18:36:21.441Z,8.57
2023-01-08T18:38:50.020Z,8.54
2023-01-08T18:41:35.227Z,8.51
2023-01-08T18:44:06.216Z,8.45
2023-01-08T18:46:35.333Z,8.37
2023-01-08T18:49:06.240Z,8.33
2023-01-08T18:51:35.159Z,8.35
2023-01-08T18:54:04.668Z,8.31
2023-01-08T18:56:36.419Z,8.26
2023-01-08T18:59:07.230Z,8.25
2023-01-08T19:01:37.229Z,8.22
2023-01-08T19:04:07.608Z,8.27
2023-01-08T19:06:36.703Z,8.36
2023-01-08T19:09:05.556Z,8.42
2023-01-08T19:11:34.388Z,8.40
2023-01-08T19:14:03.240Z,8.43
2023-01-08T19:16:31.994Z,8.40
2023-01-08T19:19:00.939Z,8.41
2023-01-08T19:21:31.342Z,8.40
2023-01-08T19:24:00.294Z,8.29
2023-01-08T19:26:29.108Z,8.22
2023-01-08T19:28:57.756Z,8.22
2023-01-08T19:31:26.559Z,8.22
2023-01-08T19:33:55.431Z,8.16
2023-01-08T19:36:26.079Z,8.13
2023-01-08T19:38:56.309Z,8.11
2023-01-08T19:41:34.875Z,8.09
2023-01-08T19:44:03.618Z,8.03
2023-01-08T19:46:32.937Z,8.03
2023-01-08T19:49:03.138Z,8.02
2023-01-08T19:51:33.823Z,7.98
2023-01-08T19:54:04.022Z,7.81
2023-01-08T19:56:32.869Z,7.52
2023-01-08T19:59:01.653Z,7.26
2023-01-08T20:01:30.459Z,7.08
2023-01-08T20:03:59.287Z,6.95
2023-01-08T20:06:29.688Z,6.83
2023-01-08T20:09:00.976Z,6.60
2023-01-08T20:11:31.680Z,6.52
2023-01-08T20:14:03.058Z,6.45
2023-01-08T20:16:32.312Z,6.32
2023-01-08T20:19:04.558Z,6.21
2023-01-08T20:21:34.998Z,6.14
2023-01-08T20:24:09.937Z,6.09
2023-01-08T20:26:40.560Z,5.99
2023-01-08T20:29:10.364Z,5.88
2023-01-08T20:31:40.273Z,5.81
2023-01-08T20:34:12.317Z,5.78
2023-01-08T20:36:41.281Z,5.67
2023-01-08T20:39:13.179Z,5.60
2023-01-08T20:41:50.076Z,5.51
2023-01-08T20:44:30.159Z,5.45
2023-01-08T20:46:58.851Z,5.30
2023-01-08T20:49:27.876Z,5.27
2023-01-08T20:51:59.481Z,5.28
2023-01-08T20:54:30.249Z,5.27
2023-01-08T20:57:01.909Z,5.22
2023-01-08T20:59:31.103Z,5.21
2023-01-08T21:01:59.958Z,5.18
2023-01-08T21:04:29.128Z,5.17
2023-01-08T21:06:57.929Z,5.10
2023-01-08T21:09:27.136Z,5.14
2023-01-08T21:11:55.830Z,5.16
2023-01-08T21:14:26.219Z,5.16
2023-01-08T21:16:55.307Z,5.14
2023-01-08T21:19:23.970Z,5.09
2023-01-08T21:21:52.799Z,5.12
2023-01-08T21:24:21.603Z,5.14
2023-01-08T21:26:50.378Z,5.20
2023-01-08T21:29:21.081Z,5.19
2023-01-08T21:31:51.294Z,5.19
2023-01-08T21:34:21.858Z,5.13
2023-01-08T21:36:50.665Z,5.11
2023-01-08T21:39:19.372Z,5.07
2023-01-08T21:41:58.003Z,5.04
2023-01-08T21:44:37.414Z,4.98
2023-01-08T21:47:10.240Z,4.95
2023-01-08T21:49:39.373Z,4.92
2023-01-08T21:52:18.465Z,4.90
2023-01-08T21:54:48.085Z,4.85
2023-01-08T21:57:17.350Z,4.82
2023-01-08T21:59:46.405Z,4.78
2023-01-08T22:02:18.294Z,4.75
2023-01-08T22:04:47.203Z,4.71
2023-01-08T22:07:16.290Z,4.71
2023-01-08T22:09:45.401Z,4.69
2023-01-08T22:12:15.564Z,4.69
2023-01-08T22:14:44.508Z,4.69
2023-01-08T22:17:13.629Z,4.67
2023-01-08T22:19:43.906Z,4.68
2023-01-08T22:22:13.206Z,4.72
2023-01-08T22:24:42.151Z,4.72
2023-01-08T22:27:11.381Z,4.76
2023-01-08T22:29:40.137Z,4.75
2023-01-08T22:32:08.908Z,4.78
2023-01-08T22:34:37.663Z,4.76
2023-01-08T22:37:07.945Z,4.75
2023-01-08T22:39:36.752Z,4.75
2023-01-08T22:42:05.813Z,4.75
2023-01-08T22:44:34.618Z,4.78
2023-01-08T22:47:03.259Z,4.74
2023-01-08T22:49:33.905Z,4.76
2023-01-08T22:52:02.758Z,4.78
2023-01-08T22:54:32.923Z,4.74
2023-01-08T22:57:01.670Z,4.74
2023-01-08T22:59:30.406Z,4.75
2023-01-08T23:01:59.218Z,4.74
2023-01-08T23:04:28.057Z,4.72
2023-01-08T23:06:56.751Z,4.80
2023-01-08T23:09:25.893Z,4.81
2023-01-08T23:11:56.152Z,4.83
2023-01-08T23:14:25.017Z,4.81
2023-01-08T23:16:53.798Z,4.82
2023-01-08T23:19:22.723Z,4.81
2023-01-08T23:21:51.512Z,4.81
2023-01-08T23:24:20.285Z,4.80
2023-01-08T23:26:49.050Z,4.82
2023-01-08T23:29:19.199Z,4.83
2023-01-08T23:31:48.125Z,4.82
2023-01-08T23:34:18.168Z,4.83
2023-01-08T23:36:46.948Z,4.85
2023-01-08T23:39:15.588Z,4.83
2023-01-08T23:41:44.360Z,4.82
2023-01-08T23:44:15.758Z,4.80
2023-01-08T23:46:45.984Z,4.77
2023-01-08T23:49:14.975Z,4.74
2023-01-08T23:51:43.653Z,4.73
2023-01-08T23:54:13.252Z,4.76
2023-01-08T23:56:42.177Z,4.70
2023-01-08T23:59:11.000Z,4.71
